CCGS Terry Fox — CGTF — position and weather

sailwx.info

Track history (hours):
 
Tides and Currents Weather Stations Pressure Air Temp Water Temp Dewpoint Dewpoint Depression Visibility Wind Speed Wind Dir Waves Ship Positions

Oceanographic research ship CCGS Terry Fox (Canada)

Detailed information on ship capabilities available from ARCUS's ALIAS (Arctic Logistics Information and Support) project.

Last reported at 2017-Aug-22 22:00 UTC. Time now 2017-Aug-22 22:38 UTC.
Position N 68°42' W 103°36'.

Length 88 m; beam 17.82 m; draft 2 m.

Type: SAR. MMSI: 316122000.

Wind from 190 at 6 knots

Barometer 1015.0 mb
Air temperature 10.2 ° C
Dewpoint 9.1 ° C

Date/timePositionNaut miles runAvg speedWind from/ knotsBaromVisibWave heightAir tempDewpointWater temp
2017-Aug-22 22:00N 68°42' W 103°36'1110.9 190 / 61015.0 10.2 9.1
2017-Aug-22 21:00N 68°42' W 104°06'1414.4 200 / 71015.1 10.9 8.3
2017-Aug-22 20:00N 68°48' W 104°42'1212.4 200 / 61015.1 10.5 8.9
2017-Aug-22 19:00N 68°54' W 105°12'6 6.4 160 / 81015.1 9.5 8.2
2017-Aug-22 18:00N 69°00' W 105°18'2 2.2 210 / 81015.4 9.9 6.4
2017-Aug-22 17:00N 69°00' W 105°12'0 0.0 240 / 61015.9 10.5 7.5
2017-Aug-22 16:00N 69°00' W 105°12'0 0.0 200 / 101016.1 10.3 7.0
2017-Aug-22 15:00N 69°00' W 105°12'0 0.0 1016.4 11.1 8.1
2017-Aug-22 14:00N 69°00' W 105°12'0 0.0 160 / 31016.8 9.1 7.4
2017-Aug-22 13:00N 69°00' W 105°12'0 0.0 200 / 81017.1 8.6 6.6
2017-Aug-22 12:00N 69°00' W 105°12'0 0.0 180 / 71017.1 8.1 6.3
2017-Aug-22 11:00N 69°00' W 105°12'0 0.0 200 / 51017.1 8.9 6.9
2017-Aug-22 10:00N 69°00' W 105°12'0 0.0 190 / 111017.4 8.7 6.8
2017-Aug-22 09:00N 69°00' W 105°12'0 0.0 180 / 91017.6 8.4 6.8
2017-Aug-22 08:00N 69°00' W 105°12'0 0.0 170 / 61017.9 7.8 6.5
2017-Aug-22 07:00N 69°00' W 105°12'0 0.0 180 / 81018.0 8.0 6.0
2017-Aug-22 06:00N 69°00' W 105°12'0 0.0 170 / 81018.1 8.3 6.0
2017-Aug-22 05:00N 69°00' W 105°12'0 0.0 170 / 71018.4 8.8 6.1
2017-Aug-22 04:00N 69°00' W 105°12'0 0.0 160 / 91018.4 9.5 6.4
2017-Aug-22 03:00N 69°00' W 105°12'0 0.0 170 / 111018.4 10.5 6.1
2017-Aug-22 02:00N 69°00' W 105°12'0 0.0 160 / 121018.5 12.0 5.7
2017-Aug-22 01:00N 69°00' W 105°12'0 0.0 150 / 121018.5 13.3 6.5
2017-Aug-22 00:00N 69°00' W 105°12'0 0.0 150 / 111018.6 14.6 5.5
2017-Aug-21 23:00N 69°00' W 105°12'0 0.0 160 / 91018.6 14.8 5.0
2017-Aug-21 22:00N 69°00' W 105°12'0 0.0 160 / 61018.8 15.5 5.6
2017-Aug-21 21:00N 69°00' W 105°12'0 0.0 170 / 51018.7 14.5 6.3
2017-Aug-21 20:00N 69°00' W 105°12'0 0.0 160 / 91018.5 14.5 6.1
2017-Aug-21 19:00N 69°00' W 105°12'0 0.0 160 / 81018.5 13.8 6.6
2017-Aug-21 18:00N 69°00' W 105°12'0 0.0 150 / 91018.3 13.1 6.5
2017-Aug-21 17:00N 69°00' W 105°12'0 0.0 150 / 91018.2 11.8 7.5
2017-Aug-21 16:00N 69°00' W 105°12'0 0.0 130 / 91017.8 10.9 8.3
2017-Aug-21 15:00N 69°00' W 105°12'6 6.4 140 / 121017.6 10.5 8.8
2017-Aug-21 14:00N 68°54' W 105°18'1414.3 110 / 71017.6 8.1 8.0
2017-Aug-21 13:00N 68°48' W 104°42'1414.4 120 / 81017.5 8.6 8.4
2017-Aug-21 12:00N 68°42' W 104°06'1313.1 140 / 91017.3 9.3 8.6
2017-Aug-21 11:00N 68°42' W 103°30'1313.1 130 / 91017.0 8.8 8.5
2017-Aug-21 10:00N 68°42' W 102°54'1414.4 120 / 101016.9 8.6 8.3
2017-Aug-21 09:00N 68°48' W 102°18'1212.4 140 / 61016.5 8.6 7.9
2017-Aug-21 08:00N 68°54' W 101°48'1212.3 130 / 91016.6 8.9 7.6
2017-Aug-21 07:00N 69°00' W 101°18'1616.1 130 / 101016.6 8.8 6.7
2017-Aug-21 06:00N 69°12' W 100°48'1212.2 120 / 61016.4 8.1 7.1
2017-Aug-21 05:00N 69°18' W 100°18'1514.7 130 / 81016.0 9.8 7.0
2017-Aug-21 04:00N 69°30' W 099°54'1615.9 100 / 111015.9 9.9 7.4
2017-Aug-21 03:00N 69°42' W 099°24'1010.2 090 / 121015.8 9.9 8.0
2017-Aug-21 02:00N 69°48' W 099°00'7 7.3 080 / 101015.6 9.3 8.6
2017-Aug-21 01:00N 69°54' W 098°48'1212.4 070 / 81015.4 9.2 7.8
2017-Aug-21 00:00N 69°54' W 098°12'1919.0 060 / 21015.2 9.1 8.9
2017-Aug-20 23:00N 70°12' W 097°54'2412.0 180 / 41014.9 7.1 7.0
2017-Aug-20 21:00N 70°36' W 098°00'1212.0 130 / 51014.5 3.3 3.2
2017-Aug-20 20:00N 70°48' W 098°00'8 8.4 130 / 81014.4 3.8 3.2
2017-Aug-20 19:00N 70°54' W 097°42'4 3.9 120 / 111014.2 5.7 3.1
2017-Aug-20 18:00N 70°54' W 097°30'6 6.3 110 / 81014.0 6.1 1.8
2017-Aug-20 17:00N 71°00' W 097°24'7 7.2 120 / 71014.0 6.5 1.1
2017-Aug-20 16:00N 71°06' W 097°12'8 4.2 140 / 41013.7 7.3 0.7
2017-Aug-20 14:00N 71°12' W 096°54'1212.2 090 / 51013.5 5.5 1.0
2017-Aug-20 13:00N 71°24' W 096°48'10 9.7 070 / 71013.4 3.3 2.1
2017-Aug-20 12:00N 71°30' W 096°24'1515.3 080 / 91013.3 4.5 2.3
2017-Aug-20 11:00N 71°42' W 095°54'7 7.1 070 / 51013.3 4.5 2.5
2017-Aug-20 10:00N 71°48' W 095°42'6 6.3 080 / 61013.3 4.8 1.7
2017-Aug-20 09:00N 71°54' W 095°36'6 5.6 070 / 91013.4 4.2 1.3
2017-Aug-20 08:00N 71°54' W 095°54'0 0.0 060 / 81013.5 3.3 1.4
2017-Aug-20 07:00N 71°54' W 095°54'0 0.0 070 / 81013.4 4.2 1.3
2017-Aug-20 06:00N 71°54' W 095°54'0 0.0 060 / 81013.4 3.2 1.3
2017-Aug-20 05:00N 71°54' W 095°54'0 0.0 060 / 81013.2 3.0 1.8
2017-Aug-20 04:00N 71°54' W 095°54'0 0.0 070 / 91013.2 4.1 2.3
2017-Aug-20 03:00N 71°54' W 095°54'2 1.9 060 / 71013.4 3.4 1.9
2017-Aug-20 02:00N 71°54' W 095°48'0 0.0 080 / 81013.3 4.5 2.0
2017-Aug-20 01:00N 71°54' W 095°48'6 5.6 090 / 111013.3 7.8 3.7
2017-Aug-20 00:00N 71°54' W 095°30'2 1.9 090 / 101013.2 6.9 3.6
2017-Aug-19 23:00N 71°54' W 095°24'6 5.6 080 / 161013.5 9.0 5.3
2017-Aug-19 22:00N 71°54' W 095°06'10 9.6 070 / 151014.1 6.8 3.2
2017-Aug-19 21:00N 72°00' W 094°42'10 9.6 090 / 91014.9 4.5 2.9
2017-Aug-19 20:00N 71°54' W 094°18'1313.0 060 / 91014.9 2.7 2.5
2017-Aug-19 19:00N 71°54' W 093°36'1817.7 110 / 71015.0 2.9 2.8
2017-Aug-19 18:00N 72°06' W 092°54'1414.1 110 / 91014.9 2.9 2.8
2017-Aug-19 17:00N 72°18' W 092°30'1313.2 130 / 81015.0 2.9 2.7
2017-Aug-19 16:00N 72°30' W 092°12'1515.0 120 / 71015.1 2.8 2.7
2017-Aug-19 15:00N 72°42' W 091°42'4 3.6 140 / 71015.3 1.6 1.4
2017-Aug-19 14:00N 72°42' W 091°54'6 6.0 020 / 101014.9 1.9 1.7
2017-Aug-19 13:00N 72°48' W 091°54'1413.9 040 / 101015.6 2.8 1.0
2017-Aug-19 12:00N 73°00' W 091°30'1212.5 030 / 41015.6 1.4 1.2
2017-Aug-19 11:00N 73°12' W 091°18'0 0.0 050 / 21015.6 2.2 1.1
2017-Aug-19 10:00N 73°12' W 091°18'0 0.0 040 / 41015.4 2.2 0.6
2017-Aug-19 09:00N 73°12' W 091°18'0 0.0 250 / 51015.3 2.7 1.5
2017-Aug-19 08:00N 73°12' W 091°18'0 0.0 240 / 61015.1 2.8 1.9
2017-Aug-19 07:00N 73°12' W 091°18'0 0.0 240 / 61014.9 2.3 1.3
2017-Aug-19 06:00N 73°12' W 091°18'0 0.0 240 / 21014.6 2.2 1.8
2017-Aug-19 05:00N 73°12' W 091°18'0 0.0 1014.3 2.9 2.0
2017-Aug-19 04:00N 73°12' W 091°18'0 0.0 080 / 31014.2 2.6 2.4
2017-Aug-19 03:00N 73°12' W 091°18'0 0.0 060 / 21014.1 2.8 2.0
2017-Aug-19 02:00N 73°12' W 091°18'0 0.0 250 / 11013.8 4.2 2.9
2017-Aug-19 01:00N 73°12' W 091°18'0 0.0 1013.7 4.1 2.7
2017-Aug-19 00:00N 73°12' W 091°18'0 0.0 070 / 41013.6 2.8 2.6
2017-Aug-18 22:00N 73°12' W 091°18'0 0.0 100 / 61013.1 3.2 3.0
2017-Aug-18 21:00N 73°12' W 091°18'0 0.0 090 / 41012.9 4.0 2.9
2017-Aug-18 20:00N 73°12' W 091°18'0 0.0 080 / 31012.7 5.6 1.1
2017-Aug-18 19:00N 73°12' W 091°18'0 0.0 070 / 21012.5 5.0 1.3
2017-Aug-18 18:00N 73°12' W 091°18'0 0.0 070 / 51012.4 4.9 0.8
2017-Aug-18 17:00N 73°12' W 091°18'0 0.0 090 / 41012.2 3.7 1.7
2017-Aug-18 16:00N 73°12' W 091°18'0 0.0 110 / 41012.0 4.1 1.2
2017-Aug-18 15:00N 73°12' W 091°18'0 0.0 100 / 21012.0 3.6 1.9
2017-Aug-18 14:00N 73°12' W 091°18'0 0.0 140 / 61011.7 3.5 1.8
2017-Aug-18 13:00N 73°12' W 091°18'0 0.0 260 / 61011.8 5.0 0.4
2017-Aug-18 12:00N 73°12' W 091°18'0 0.0 250 / 111011.7 3.9 0.2
2017-Aug-18 11:00N 73°12' W 091°18'0 0.0 250 / 111011.9 3.7 0.3
2017-Aug-18 10:00N 73°12' W 091°18'0 0.0 250 / 121011.7 3.7 0.6
2017-Aug-18 09:00N 73°12' W 091°18'0 0.0 250 / 121011.8 4.8 1.4
2017-Aug-18 08:00N 73°12' W 091°18'0 0.0 260 / 81011.8 4.4 2.0
2017-Aug-18 07:00N 73°12' W 091°18'0 0.0 240 / 51011.8 4.8 2.5
2017-Aug-18 06:00N 73°12' W 091°18'0 0.0 250 / 41012.1 3.6 2.5
2017-Aug-18 05:00N 73°12' W 091°18'0 0.0 220 / 41012.1 4.2 2.2
2017-Aug-18 04:00N 73°12' W 091°18'0 0.0 240 / 81012.3 4.5 0.9
2017-Aug-18 03:00N 73°12' W 091°18'0 0.0 260 / 31012.7 5.9 1.8
2017-Aug-18 02:00N 73°12' W 091°18'0 0.0 160 / 21013.1 4.0 1.6
2017-Aug-18 01:00N 73°12' W 091°18'0 0.0 060 / 41013.6 4.6 0.2
2017-Aug-18 00:00N 73°12' W 091°18'0 0.0 080 / 41013.7 4.4 0.5
2017-Aug-17 23:00N 73°12' W 091°18'0 0.0 080 / 31014.1 4.9 0.3
2017-Aug-17 22:00N 73°12' W 091°18'0 0.0 070 / 51014.6 4.5 0.2
2017-Aug-17 21:00N 73°12' W 091°18'0 0.0 110 / 21014.9 3.9 1.7
2017-Aug-17 20:00N 73°12' W 091°18'0 0.0 090 / 21015.3 3.7 1.7
2017-Aug-17 19:00N 73°12' W 091°18'0 0.0 100 / 11015.7 4.0 2.4
2017-Aug-17 18:00N 73°12' W 091°18'0 0.0 080 / 71015.8 2.3 1.6
2017-Aug-17 17:00N 73°12' W 091°18'0 0.0 060 / 141015.8 3.4 0.9
2017-Aug-17 16:00N 73°12' W 091°18'0 0.0 050 / 121016.2 3.1 0.8
2017-Aug-17 15:00N 73°12' W 091°18'0 0.0 040 / 101016.6 2.5 0.5
2017-Aug-17 14:00N 73°12' W 091°18'0 0.0 040 / 41016.8 3.0 0.5
2017-Aug-17 13:00N 73°12' W 091°18'0 0.0 050 / 41017.2 5.4 1.6
2017-Aug-17 12:00N 73°12' W 091°18'0 0.0 240 / 81017.2 3.4 0.5
2017-Aug-17 11:00N 73°12' W 091°18'0 0.0 250 / 101017.4 3.1-0.0
2017-Aug-17 10:00N 73°12' W 091°18'0 0.0 250 / 71017.4 3.4 0.2
2017-Aug-17 09:00N 73°12' W 091°18'0 0.0 240 / 81017.5 3.4-0.2
2017-Aug-17 08:00N 73°12' W 091°18'0 0.0 240 / 51017.4 3.4 0.6
2017-Aug-17 07:00N 73°12' W 091°18'0 0.0 310 / 11017.4 3.4 1.5
2017-Aug-17 06:00N 73°12' W 091°18'0 0.0 240 / 11017.3 4.1 1.7
2017-Aug-17 05:00N 73°12' W 091°18'0 0.0 250 / 51017.0 4.2 2.1
2017-Aug-17 04:00N 73°12' W 091°18'0 0.0 250 / 21017.0 3.2 1.1
2017-Aug-17 03:00N 73°12' W 091°18'0 0.0 080 / 11016.9 3.3 2.4
2017-Aug-17 02:00N 73°12' W 091°18'0 0.0 040 / 41017.2 3.2 1.8
2017-Aug-17 01:00N 73°12' W 091°18'0 0.0 240 / 31017.2 3.8 1.5
2017-Aug-17 00:00N 73°12' W 091°18'0 0.0 240 / 11017.5 4.3 3.0
2017-Aug-16 23:00N 73°12' W 091°18'0 0.0 080 / 61017.4 2.3 2.0
2017-Aug-16 22:00N 73°12' W 091°18'0 0.0 080 / 71017.2 2.8 1.5
2017-Aug-16 21:00N 73°12' W 091°18'0 0.0 050 / 91017.1 3.0 0.3
2017-Aug-16 20:00N 73°12' W 091°18'0 0.0 150 / 91016.9 4.0 0.4
2017-Aug-16 19:00N 73°12' W 091°18'0 0.0 160 / 111017.1 3.9-0.3
2017-Aug-16 18:00N 73°12' W 091°18'0 0.0 160 / 121017.3 4.6-1.2
2017-Aug-16 17:00N 73°12' W 091°18'0 0.0 150 / 91017.7 4.4-0.4
2017-Aug-16 16:00N 73°12' W 091°18'0 0.0 150 / 71017.9 3.7-0.5
2017-Aug-16 15:00N 73°12' W 091°18'0 0.0 160 / 31018.0 4.4-0.1
2017-Aug-16 14:00N 73°12' W 091°18'0 0.0 250 / 41018.1 3.5 0.3
2017-Aug-16 13:00N 73°12' W 091°18'0 0.0 180 / 21018.2 2.7 0.7
2017-Aug-16 12:00N 73°12' W 091°18'0 0.0 250 / 71018.3 2.3-0.4
2017-Aug-16 11:00N 73°12' W 091°18'0 0.0 240 / 91018.0 2.3-0.6
2017-Aug-16 10:00N 73°12' W 091°18'0 0.0 230 / 111017.9 2.6-1.2
2017-Aug-16 09:00N 73°12' W 091°18'0 0.0 240 / 121017.8 2.3-1.0
2017-Aug-16 07:00N 73°12' W 091°18'0 0.0 230 / 71018.0 3.0-0.5
2017-Aug-16 06:00N 73°12' W 091°18'0 0.0 260 / 31018.2 4.3-0.7
2017-Aug-16 05:00N 73°12' W 091°18'0 0.0 310 / 21018.1 4.3-0.1
2017-Aug-16 03:00N 73°12' W 091°18'0 0.0 1017.8 5.8 0.2
2017-Aug-16 02:00N 73°12' W 091°18'0 0.0 270 / 11017.8 6.1 0.7
2017-Aug-16 01:00N 73°12' W 091°18'0 0.0 130 / 11017.9 4.4 1.6
2017-Aug-16 00:00N 73°12' W 091°18'0 0.0 060 / 21017.8 4.9 1.6
2017-Aug-15 23:00N 73°12' W 091°18'0 0.0 140 / 71017.7 2.7 0.9
2017-Aug-15 22:00N 73°12' W 091°18'0 0.0 110 / 41017.7 3.5 1.0
2017-Aug-15 21:00N 73°12' W 091°18'0 0.0 150 / 91017.8 3.3 0.5
2017-Aug-15 20:00N 73°12' W 091°18'0 0.0 140 / 21017.6 7.9 0.8
2017-Aug-15 19:00N 73°12' W 091°18'0 0.0 330 / 141017.3 5.9-0.3
2017-Aug-15 18:00N 73°12' W 091°18'0 0.0 350 / 211017.4 4.8 0.8
2017-Aug-15 17:00N 73°12' W 091°18'0 0.0 330 / 71017.6 4.8 0.7
2017-Aug-15 16:00N 73°12' W 091°18'0 0.0 350 / 71017.3 4.8-0.2
2017-Aug-15 15:00N 73°12' W 091°18'0 0.0 330 / 191017.2 3.3-0.0
2017-Aug-15 14:00N 73°12' W 091°18'0 0.0 340 / 171017.3 3.3 0.2
2017-Aug-15 13:00N 73°12' W 091°18'0 0.0 310 / 41017.8 3.8-0.4
2017-Aug-15 12:00N 73°12' W 091°18'0 0.0 020 / 41017.3 7.3 1.9
2017-Aug-15 11:00N 73°12' W 091°18'0 0.0 340 / 121017.6 1.4-0.7
2017-Aug-15 10:00N 73°12' W 091°18'0 0.0 330 / 141017.4 0.7-0.8
2017-Aug-15 09:00N 73°12' W 091°18'0 0.0 330 / 101017.2 0.7-0.8
2017-Aug-15 08:00N 73°12' W 091°18'0 0.0 320 / 161017.3 0.6-0.8
2017-Aug-15 07:00N 73°12' W 091°18'0 0.0 300 / 71016.7 1.7-0.6
2017-Aug-15 06:00N 73°12' W 091°18'0 0.0 270 / 121017.0 1.0-0.5
2017-Aug-15 05:00N 73°12' W 091°18'0 0.0 240 / 121016.2 1.6-0.6
2017-Aug-15 04:00N 73°12' W 091°18'0 0.0 320 / 181015.9 3.3-0.2
2017-Aug-15 03:00N 73°12' W 091°18'0 0.0 330 / 131015.5 2.8-0.3
2017-Aug-15 02:00N 73°12' W 091°18'0 0.0 300 / 111015.5 2.9 0.4
2017-Aug-15 01:00N 73°12' W 091°18'0 0.0 320 / 71015.3 5.5 0.8
2017-Aug-15 00:00N 73°12' W 091°18'0 0.0 350 / 201014.9 3.2 0.1
2017-Aug-14 23:00N 73°12' W 091°18'0 0.0 340 / 111014.8 3.2-0.0
2017-Aug-14 22:00N 73°12' W 091°18'0 0.0 350 / 181014.4 3.1 0.1
2017-Aug-14 21:00N 73°12' W 091°18'0 0.0 340 / 161013.7 3.3 0.1
2017-Aug-14 20:00N 73°12' W 091°18'0 0.0 340 / 231013.3 3.0 0.2
2017-Aug-14 19:00N 73°12' W 091°18'0 0.0 330 / 151012.8 3.1-0.1
2017-Aug-14 18:00N 73°12' W 091°18'0 0.0 340 / 211012.1 2.5-0.4
2017-Aug-14 17:00N 73°12' W 091°18'0 0.0 340 / 121011.8 2.5-0.4
2017-Aug-14 16:00N 73°12' W 091°18'0 0.0 350 / 131011.1 1.7-0.2
2017-Aug-14 15:00N 73°12' W 091°18'0 0.0 320 / 161009.9 1.9-0.6
2017-Aug-14 14:00N 73°12' W 091°18'0 0.0 320 / 31009.8 3.0 0.2
2017-Aug-14 13:00N 73°12' W 091°18'0 0.0 300 / 81008.6 2.5 0.1
2017-Aug-14 12:00N 73°12' W 091°18'0 0.0 260 / 121007.7 2.3 0.2
2017-Aug-14 11:00N 73°12' W 091°18'2 1.7 240 / 151006.0 2.2 0.8
2017-Aug-14 10:00N 73°12' W 091°24'0 0.0 280 / 121004.7 3.0 1.9
2017-Aug-14 09:00N 73°12' W 091°24'0 0.0 250 / 101004.4 4.7 4.5
2017-Aug-14 08:00N 73°12' W 091°24'0 0.0 290 / 151003.3 6.8 6.6
2017-Aug-14 07:00N 73°12' W 091°24'0 0.0 290 / 61003.0 9.1 8.9
2017-Aug-14 06:00N 73°12' W 091°24'0 0.0 300 / 41002.4 6.9 6.9
2017-Aug-14 05:00N 73°12' W 091°24'0 0.0 330 / 31002.1 6.4 6.4
2017-Aug-14 04:00N 73°12' W 091°24'0 0.0 080 / 61001.8 5.5 5.4
2017-Aug-14 03:00N 73°12' W 091°24'0 0.0 070 / 11001.6 6.5 6.4
2017-Aug-14 02:00N 73°12' W 091°24'0 0.0 230 / 51002.5 7.9 7.9
2017-Aug-14 01:00N 73°12' W 091°24'0 0.0 210 / 51002.4 5.0 4.9
2017-Aug-14 00:00N 73°12' W 091°24'0 0.0 030 / 51002.4 5.3 5.2
2017-Aug-13 23:00N 73°12' W 091°24'0 0.0 360 / 51003.3 4.4 4.3
2017-Aug-13 22:00N 73°12' W 091°24'0 0.0 120 / 131004.1 4.5 4.5
2017-Aug-13 21:00N 73°12' W 091°24'0 0.0 170 / 141005.4 4.5 4.5
2017-Aug-13 20:00N 73°12' W 091°24'0 0.0 170 / 151005.8 5.3 5.2
2017-Aug-13 19:00N 73°12' W 091°24'0 0.0 170 / 181006.0 5.5 5.4
2017-Aug-13 18:00N 73°12' W 091°24'0 0.0 160 / 91006.7 6.0 5.9
2017-Aug-13 17:00N 73°12' W 091°24'0 0.0 140 / 71007.0 6.0 5.9
2017-Aug-13 16:00N 73°12' W 091°24'0 0.0 150 / 101007.3 5.9 5.8
2017-Aug-13 15:00N 73°12' W 091°24'0 0.0 140 / 91007.5 4.6 4.5
2017-Aug-13 14:00N 73°12' W 091°24'2 1.7 170 / 51008.2 4.3 4.2
2017-Aug-13 13:00N 73°12' W 091°18'6 6.0 160 / 51008.7 2.9 2.8
2017-Aug-13 12:00N 73°06' W 091°18'1212.1 200 / 71009.2 3.4 3.2
2017-Aug-13 11:00N 72°54' W 091°24'7 7.0 220 / 81009.5 4.7 4.5
2017-Aug-13 10:00N 72°48' W 091°36'2010.1 250 / 71009.6 4.2 4.1
2017-Aug-13 08:00N 72°30' W 092°06'7 7.0 040 / 21009.8 3.4 3.3
2017-Aug-13 07:00N 72°24' W 092°18'8 8.1 350 / 61009.8 3.3 3.2
2017-Aug-13 06:00N 72°18' W 092°36'1312.5 250 / 41009.9 3.2 3.1
2017-Aug-13 05:00N 72°06' W 092°48'10 9.5 180 / 51010.0 4.8 4.7
2017-Aug-13 04:00N 72°00' W 093°12'8 8.2 200 / 41009.7 5.4 5.3
2017-Aug-13 03:00N 71°54' W 093°30'7 7.5 330 / 91010.4 4.4 4.3
2017-Aug-13 02:00N 71°54' W 093°54'1414.3 350 / 201010.4 3.2 3.1
2017-Aug-13 01:00N 72°00' W 094°36'1414.3 360 / 181010.3 4.8 4.7
2017-Aug-13 00:00N 71°54' W 095°18'7 7.5 020 / 241008.9 7.3 7.2
2017-Aug-12 23:00N 71°54' W 095°42'0 0.0 090 / 61009.6 11.210.8
2017-Aug-12 22:00N 71°54' W 095°42'   120 / 41009.7 12.611.1
Track history (hours):
 
Tides and Currents Weather Stations Pressure Air Temp Water Temp Dewpoint Dewpoint Depression Visibility Wind Speed Wind Dir Waves Ship Positions

Oceanographic research ship CCGS Terry Fox (Canada)

Detailed information on ship capabilities available from ARCUS's ALIAS (Arctic Logistics Information and Support) project.

Last reported at 2017-Aug-22 22:00 UTC. Time now 2017-Aug-22 22:38 UTC.
Position N 68°42' W 103°36'.

Length 88 m; beam 17.82 m; draft 2 m.

Type: SAR. MMSI: 316122000.

Wind from 190 at 6 knots

Barometer 1015.0 mb
Air temperature 10.2 ° C
Dewpoint 9.1 ° C

Date/timePositionNaut miles runAvg speedWind from/ knotsBaromVisibWave heightAir tempDewpointWater temp
2017-Aug-22 22:00N 68°42' W 103°36'1110.9 190 / 61015.0 10.2 9.1
2017-Aug-22 21:00N 68°42' W 104°06'1414.4 200 / 71015.1 10.9 8.3
2017-Aug-22 20:00N 68°48' W 104°42'1212.4 200 / 61015.1 10.5 8.9
2017-Aug-22 19:00N 68°54' W 105°12'6 6.4 160 / 81015.1 9.5 8.2
2017-Aug-22 18:00N 69°00' W 105°18'2 2.2 210 / 81015.4 9.9 6.4
2017-Aug-22 17:00N 69°00' W 105°12'0 0.0 240 / 61015.9 10.5 7.5
2017-Aug-22 16:00N 69°00' W 105°12'0 0.0 200 / 101016.1 10.3 7.0
2017-Aug-22 15:00N 69°00' W 105°12'0 0.0 1016.4 11.1 8.1
2017-Aug-22 14:00N 69°00' W 105°12'0 0.0 160 / 31016.8 9.1 7.4
2017-Aug-22 13:00N 69°00' W 105°12'0 0.0 200 / 81017.1 8.6 6.6
2017-Aug-22 12:00N 69°00' W 105°12'0 0.0 180 / 71017.1 8.1 6.3
2017-Aug-22 11:00N 69°00' W 105°12'0 0.0 200 / 51017.1 8.9 6.9
2017-Aug-22 10:00N 69°00' W 105°12'0 0.0 190 / 111017.4 8.7 6.8
2017-Aug-22 09:00N 69°00' W 105°12'0 0.0 180 / 91017.6 8.4 6.8
2017-Aug-22 08:00N 69°00' W 105°12'0 0.0 170 / 61017.9 7.8 6.5
2017-Aug-22 07:00N 69°00' W 105°12'0 0.0 180 / 81018.0 8.0 6.0
2017-Aug-22 06:00N 69°00' W 105°12'0 0.0 170 / 81018.1 8.3 6.0
2017-Aug-22 05:00N 69°00' W 105°12'0 0.0 170 / 71018.4 8.8 6.1
2017-Aug-22 04:00N 69°00' W 105°12'0 0.0 160 / 91018.4 9.5 6.4
2017-Aug-22 03:00N 69°00' W 105°12'0 0.0 170 / 111018.4 10.5 6.1
2017-Aug-22 02:00N 69°00' W 105°12'0 0.0 160 / 121018.5 12.0 5.7
2017-Aug-22 01:00N 69°00' W 105°12'0 0.0 150 / 121018.5 13.3 6.5
2017-Aug-22 00:00N 69°00' W 105°12'0 0.0 150 / 111018.6 14.6 5.5
2017-Aug-21 23:00N 69°00' W 105°12'0 0.0 160 / 91018.6 14.8 5.0
2017-Aug-21 22:00N 69°00' W 105°12'0 0.0 160 / 61018.8 15.5 5.6
2017-Aug-21 21:00N 69°00' W 105°12'0 0.0 170 / 51018.7 14.5 6.3
2017-Aug-21 20:00N 69°00' W 105°12'0 0.0 160 / 91018.5 14.5 6.1
2017-Aug-21 19:00N 69°00' W 105°12'0 0.0 160 / 81018.5 13.8 6.6
2017-Aug-21 18:00N 69°00' W 105°12'0 0.0 150 / 91018.3 13.1 6.5
2017-Aug-21 17:00N 69°00' W 105°12'0 0.0 150 / 91018.2 11.8 7.5
2017-Aug-21 16:00N 69°00' W 105°12'0 0.0 130 / 91017.8 10.9 8.3
2017-Aug-21 15:00N 69°00' W 105°12'6 6.4 140 / 121017.6 10.5 8.8
2017-Aug-21 14:00N 68°54' W 105°18'1414.3 110 / 71017.6 8.1 8.0
2017-Aug-21 13:00N 68°48' W 104°42'1414.4 120 / 81017.5 8.6 8.4
2017-Aug-21 12:00N 68°42' W 104°06'1313.1 140 / 91017.3 9.3 8.6
2017-Aug-21 11:00N 68°42' W 103°30'1313.1 130 / 91017.0 8.8 8.5
2017-Aug-21 10:00N 68°42' W 102°54'1414.4 120 / 101016.9 8.6 8.3
2017-Aug-21 09:00N 68°48' W 102°18'1212.4 140 / 61016.5 8.6 7.9
2017-Aug-21 08:00N 68°54' W 101°48'1212.3 130 / 91016.6 8.9 7.6
2017-Aug-21 07:00N 69°00' W 101°18'1616.1 130 / 101016.6 8.8 6.7
2017-Aug-21 06:00N 69°12' W 100°48'1212.2 120 / 61016.4 8.1 7.1
2017-Aug-21 05:00N 69°18' W 100°18'1514.7 130 / 81016.0 9.8 7.0
2017-Aug-21 04:00N 69°30' W 099°54'1615.9 100 / 111015.9 9.9 7.4
2017-Aug-21 03:00N 69°42' W 099°24'1010.2 090 / 121015.8 9.9 8.0
2017-Aug-21 02:00N 69°48' W 099°00'7 7.3 080 / 101015.6 9.3 8.6
2017-Aug-21 01:00N 69°54' W 098°48'1212.4 070 / 81015.4 9.2 7.8
2017-Aug-21 00:00N 69°54' W 098°12'1919.0 060 / 21015.2 9.1 8.9
2017-Aug-20 23:00N 70°12' W 097°54'2412.0 180 / 41014.9 7.1 7.0
2017-Aug-20 21:00N 70°36' W 098°00'1212.0 130 / 51014.5 3.3 3.2
2017-Aug-20 20:00N 70°48' W 098°00'8 8.4 130 / 81014.4 3.8 3.2
2017-Aug-20 19:00N 70°54' W 097°42'4 3.9 120 / 111014.2 5.7 3.1
2017-Aug-20 18:00N 70°54' W 097°30'6 6.3 110 / 81014.0 6.1 1.8
2017-Aug-20 17:00N 71°00' W 097°24'7 7.2 120 / 71014.0 6.5 1.1
2017-Aug-20 16:00N 71°06' W 097°12'8 4.2 140 / 41013.7 7.3 0.7
2017-Aug-20 14:00N 71°12' W 096°54'1212.2 090 / 51013.5 5.5 1.0
2017-Aug-20 13:00N 71°24' W 096°48'10 9.7 070 / 71013.4 3.3 2.1
2017-Aug-20 12:00N 71°30' W 096°24'1515.3 080 / 91013.3 4.5 2.3
2017-Aug-20 11:00N 71°42' W 095°54'7 7.1 070 / 51013.3 4.5 2.5
2017-Aug-20 10:00N 71°48' W 095°42'6 6.3 080 / 61013.3 4.8 1.7
2017-Aug-20 09:00N 71°54' W 095°36'6 5.6 070 / 91013.4 4.2 1.3
2017-Aug-20 08:00N 71°54' W 095°54'0 0.0 060 / 81013.5 3.3 1.4
2017-Aug-20 07:00N 71°54' W 095°54'0 0.0 070 / 81013.4 4.2 1.3
2017-Aug-20 06:00N 71°54' W 095°54'0 0.0 060 / 81013.4 3.2 1.3
2017-Aug-20 05:00N 71°54' W 095°54'0 0.0 060 / 81013.2 3.0 1.8
2017-Aug-20 04:00N 71°54' W 095°54'0 0.0 070 / 91013.2 4.1 2.3
2017-Aug-20 03:00N 71°54' W 095°54'2 1.9 060 / 71013.4 3.4 1.9
2017-Aug-20 02:00N 71°54' W 095°48'0 0.0 080 / 81013.3 4.5 2.0
2017-Aug-20 01:00N 71°54' W 095°48'6 5.6 090 / 111013.3 7.8 3.7
2017-Aug-20 00:00N 71°54' W 095°30'2 1.9 090 / 101013.2 6.9 3.6
2017-Aug-19 23:00N 71°54' W 095°24'6 5.6 080 / 161013.5 9.0 5.3
2017-Aug-19 22:00N 71°54' W 095°06'10 9.6 070 / 151014.1 6.8 3.2
2017-Aug-19 21:00N 72°00' W 094°42'10 9.6 090 / 91014.9 4.5 2.9
2017-Aug-19 20:00N 71°54' W 094°18'1313.0 060 / 91014.9 2.7 2.5
2017-Aug-19 19:00N 71°54' W 093°36'1817.7 110 / 71015.0 2.9 2.8
2017-Aug-19 18:00N 72°06' W 092°54'1414.1 110 / 91014.9 2.9 2.8
2017-Aug-19 17:00N 72°18' W 092°30'1313.2 130 / 81015.0 2.9 2.7
2017-Aug-19 16:00N 72°30' W 092°12'1515.0 120 / 71015.1 2.8 2.7
2017-Aug-19 15:00N 72°42' W 091°42'4 3.6 140 / 71015.3 1.6 1.4
2017-Aug-19 14:00N 72°42' W 091°54'6 6.0 020 / 101014.9 1.9 1.7
2017-Aug-19 13:00N 72°48' W 091°54'1413.9 040 / 101015.6 2.8 1.0
2017-Aug-19 12:00N 73°00' W 091°30'1212.5 030 / 41015.6 1.4 1.2
2017-Aug-19 11:00N 73°12' W 091°18'0 0.0 050 / 21015.6 2.2 1.1
2017-Aug-19 10:00N 73°12' W 091°18'0 0.0 040 / 41015.4 2.2 0.6
2017-Aug-19 09:00N 73°12' W 091°18'0 0.0 250 / 51015.3 2.7 1.5
2017-Aug-19 08:00N 73°12' W 091°18'0 0.0 240 / 61015.1 2.8 1.9
2017-Aug-19 07:00N 73°12' W 091°18'0 0.0 240 / 61014.9 2.3 1.3
2017-Aug-19 06:00N 73°12' W 091°18'0 0.0 240 / 21014.6 2.2 1.8
2017-Aug-19 05:00N 73°12' W 091°18'0 0.0 1014.3 2.9 2.0
2017-Aug-19 04:00N 73°12' W 091°18'0 0.0 080 / 31014.2 2.6 2.4
2017-Aug-19 03:00N 73°12' W 091°18'0 0.0 060 / 21014.1 2.8 2.0
2017-Aug-19 02:00N 73°12' W 091°18'0 0.0 250 / 11013.8 4.2 2.9
2017-Aug-19 01:00N 73°12' W 091°18'0 0.0 1013.7 4.1 2.7
2017-Aug-19 00:00N 73°12' W 091°18'0 0.0 070 / 41013.6 2.8 2.6
2017-Aug-18 22:00N 73°12' W 091°18'0 0.0 100 / 61013.1 3.2 3.0
2017-Aug-18 21:00N 73°12' W 091°18'0 0.0 090 / 41012.9 4.0 2.9
2017-Aug-18 20:00N 73°12' W 091°18'0 0.0 080 / 31012.7 5.6 1.1
2017-Aug-18 19:00N 73°12' W 091°18'0 0.0 070 / 21012.5 5.0 1.3
2017-Aug-18 18:00N 73°12' W 091°18'0 0.0 070 / 51012.4 4.9 0.8
2017-Aug-18 17:00N 73°12' W 091°18'0 0.0 090 / 41012.2 3.7 1.7
2017-Aug-18 16:00N 73°12' W 091°18'0 0.0 110 / 41012.0 4.1 1.2
2017-Aug-18 15:00N 73°12' W 091°18'0 0.0 100 / 21012.0 3.6 1.9
2017-Aug-18 14:00N 73°12' W 091°18'0 0.0 140 / 61011.7 3.5 1.8
2017-Aug-18 13:00N 73°12' W 091°18'0 0.0 260 / 61011.8 5.0 0.4
2017-Aug-18 12:00N 73°12' W 091°18'0 0.0 250 / 111011.7 3.9 0.2
2017-Aug-18 11:00N 73°12' W 091°18'0 0.0 250 / 111011.9 3.7 0.3
2017-Aug-18 10:00N 73°12' W 091°18'0 0.0 250 / 121011.7 3.7 0.6
2017-Aug-18 09:00N 73°12' W 091°18'0 0.0 250 / 121011.8 4.8 1.4
2017-Aug-18 08:00N 73°12' W 091°18'0 0.0 260 / 81011.8 4.4 2.0
2017-Aug-18 07:00N 73°12' W 091°18'0 0.0 240 / 51011.8 4.8 2.5
2017-Aug-18 06:00N 73°12' W 091°18'0 0.0 250 / 41012.1 3.6 2.5
2017-Aug-18 05:00N 73°12' W 091°18'0 0.0 220 / 41012.1 4.2 2.2
2017-Aug-18 04:00N 73°12' W 091°18'0 0.0 240 / 81012.3 4.5 0.9
2017-Aug-18 03:00N 73°12' W 091°18'0 0.0 260 / 31012.7 5.9 1.8
2017-Aug-18 02:00N 73°12' W 091°18'0 0.0 160 / 21013.1 4.0 1.6
2017-Aug-18 01:00N 73°12' W 091°18'0 0.0 060 / 41013.6 4.6 0.2
2017-Aug-18 00:00N 73°12' W 091°18'0 0.0 080 / 41013.7 4.4 0.5
2017-Aug-17 23:00N 73°12' W 091°18'0 0.0 080 / 31014.1 4.9 0.3
2017-Aug-17 22:00N 73°12' W 091°18'0 0.0 070 / 51014.6 4.5 0.2
2017-Aug-17 21:00N 73°12' W 091°18'0 0.0 110 / 21014.9 3.9 1.7
2017-Aug-17 20:00N 73°12' W 091°18'0 0.0 090 / 21015.3 3.7 1.7
2017-Aug-17 19:00N 73°12' W 091°18'0 0.0 100 / 11015.7 4.0 2.4
2017-Aug-17 18:00N 73°12' W 091°18'0 0.0 080 / 71015.8 2.3 1.6
2017-Aug-17 17:00N 73°12' W 091°18'0 0.0 060 / 141015.8 3.4 0.9
2017-Aug-17 16:00N 73°12' W 091°18'0 0.0 050 / 121016.2 3.1 0.8
2017-Aug-17 15:00N 73°12' W 091°18'0 0.0 040 / 101016.6 2.5 0.5
2017-Aug-17 14:00N 73°12' W 091°18'0 0.0 040 / 41016.8 3.0 0.5
2017-Aug-17 13:00N 73°12' W 091°18'0 0.0 050 / 41017.2 5.4 1.6
2017-Aug-17 12:00N 73°12' W 091°18'0 0.0 240 / 81017.2 3.4 0.5
2017-Aug-17 11:00N 73°12' W 091°18'0 0.0 250 / 101017.4 3.1-0.0
2017-Aug-17 10:00N 73°12' W 091°18'0 0.0 250 / 71017.4 3.4 0.2
2017-Aug-17 09:00N 73°12' W 091°18'0 0.0 240 / 81017.5 3.4-0.2
2017-Aug-17 08:00N 73°12' W 091°18'0 0.0 240 / 51017.4 3.4 0.6
2017-Aug-17 07:00N 73°12' W 091°18'0 0.0 310 / 11017.4 3.4 1.5
2017-Aug-17 06:00N 73°12' W 091°18'0 0.0 240 / 11017.3 4.1 1.7
2017-Aug-17 05:00N 73°12' W 091°18'0 0.0 250 / 51017.0 4.2 2.1
2017-Aug-17 04:00N 73°12' W 091°18'0 0.0 250 / 21017.0 3.2 1.1
2017-Aug-17 03:00N 73°12' W 091°18'0 0.0 080 / 11016.9 3.3 2.4
2017-Aug-17 02:00N 73°12' W 091°18'0 0.0 040 / 41017.2 3.2 1.8
2017-Aug-17 01:00N 73°12' W 091°18'0 0.0 240 / 31017.2 3.8 1.5
2017-Aug-17 00:00N 73°12' W 091°18'0 0.0 240 / 11017.5 4.3 3.0
2017-Aug-16 23:00N 73°12' W 091°18'0 0.0 080 / 61017.4 2.3 2.0
2017-Aug-16 22:00N 73°12' W 091°18'0 0.0 080 / 71017.2 2.8 1.5
2017-Aug-16 21:00N 73°12' W 091°18'0 0.0 050 / 91017.1 3.0 0.3
2017-Aug-16 20:00N 73°12' W 091°18'0 0.0 150 / 91016.9 4.0 0.4
2017-Aug-16 19:00N 73°12' W 091°18'0 0.0 160 / 111017.1 3.9-0.3
2017-Aug-16 18:00N 73°12' W 091°18'0 0.0 160 / 121017.3 4.6-1.2
2017-Aug-16 17:00N 73°12' W 091°18'0 0.0 150 / 91017.7 4.4-0.4
2017-Aug-16 16:00N 73°12' W 091°18'0 0.0 150 / 71017.9 3.7-0.5
2017-Aug-16 15:00N 73°12' W 091°18'0 0.0 160 / 31018.0 4.4-0.1
2017-Aug-16 14:00N 73°12' W 091°18'0 0.0 250 / 41018.1 3.5 0.3
2017-Aug-16 13:00N 73°12' W 091°18'0 0.0 180 / 21018.2 2.7 0.7
2017-Aug-16 12:00N 73°12' W 091°18'0 0.0 250 / 71018.3 2.3-0.4
2017-Aug-16 11:00N 73°12' W 091°18'0 0.0 240 / 91018.0 2.3-0.6
2017-Aug-16 10:00N 73°12' W 091°18'0 0.0 230 / 111017.9 2.6-1.2
2017-Aug-16 09:00N 73°12' W 091°18'0 0.0 240 / 121017.8 2.3-1.0
2017-Aug-16 07:00N 73°12' W 091°18'0 0.0 230 / 71018.0 3.0-0.5
2017-Aug-16 06:00N 73°12' W 091°18'0 0.0 260 / 31018.2 4.3-0.7
2017-Aug-16 05:00N 73°12' W 091°18'0 0.0 310 / 21018.1 4.3-0.1
2017-Aug-16 03:00N 73°12' W 091°18'0 0.0 1017.8 5.8 0.2
2017-Aug-16 02:00N 73°12' W 091°18'0 0.0 270 / 11017.8 6.1 0.7
2017-Aug-16 01:00N 73°12' W 091°18'0 0.0 130 / 11017.9 4.4 1.6
2017-Aug-16 00:00N 73°12' W 091°18'0 0.0 060 / 21017.8 4.9 1.6
2017-Aug-15 23:00N 73°12' W 091°18'0 0.0 140 / 71017.7 2.7 0.9
2017-Aug-15 22:00N 73°12' W 091°18'0 0.0 110 / 41017.7 3.5 1.0
2017-Aug-15 21:00N 73°12' W 091°18'0 0.0 150 / 91017.8 3.3 0.5
2017-Aug-15 20:00N 73°12' W 091°18'0 0.0 140 / 21017.6 7.9 0.8
2017-Aug-15 19:00N 73°12' W 091°18'0 0.0 330 / 141017.3 5.9-0.3
2017-Aug-15 18:00N 73°12' W 091°18'0 0.0 350 / 211017.4 4.8 0.8
2017-Aug-15 17:00N 73°12' W 091°18'0 0.0 330 / 71017.6 4.8 0.7
2017-Aug-15 16:00N 73°12' W 091°18'0 0.0 350 / 71017.3 4.8-0.2
2017-Aug-15 15:00N 73°12' W 091°18'0 0.0 330 / 191017.2 3.3-0.0
2017-Aug-15 14:00N 73°12' W 091°18'0 0.0 340 / 171017.3 3.3 0.2
2017-Aug-15 13:00N 73°12' W 091°18'0 0.0 310 / 41017.8 3.8-0.4
2017-Aug-15 12:00N 73°12' W 091°18'0 0.0 020 / 41017.3 7.3 1.9
2017-Aug-15 11:00N 73°12' W 091°18'0 0.0 340 / 121017.6 1.4-0.7
2017-Aug-15 10:00N 73°12' W 091°18'0 0.0 330 / 141017.4 0.7-0.8
2017-Aug-15 09:00N 73°12' W 091°18'0 0.0 330 / 101017.2 0.7-0.8
2017-Aug-15 08:00N 73°12' W 091°18'0 0.0 320 / 161017.3 0.6-0.8
2017-Aug-15 07:00N 73°12' W 091°18'0 0.0 300 / 71016.7 1.7-0.6
2017-Aug-15 06:00N 73°12' W 091°18'0 0.0 270 / 121017.0 1.0-0.5
2017-Aug-15 05:00N 73°12' W 091°18'0 0.0 240 / 121016.2 1.6-0.6
2017-Aug-15 04:00N 73°12' W 091°18'0 0.0 320 / 181015.9 3.3-0.2
2017-Aug-15 03:00N 73°12' W 091°18'0 0.0 330 / 131015.5 2.8-0.3
2017-Aug-15 02:00N 73°12' W 091°18'0 0.0 300 / 111015.5 2.9 0.4
2017-Aug-15 01:00N 73°12' W 091°18'0 0.0 320 / 71015.3 5.5 0.8
2017-Aug-15 00:00N 73°12' W 091°18'0 0.0 350 / 201014.9 3.2 0.1
2017-Aug-14 23:00N 73°12' W 091°18'0 0.0 340 / 111014.8 3.2-0.0
2017-Aug-14 22:00N 73°12' W 091°18'0 0.0 350 / 181014.4 3.1 0.1
2017-Aug-14 21:00N 73°12' W 091°18'0 0.0 340 / 161013.7 3.3 0.1
2017-Aug-14 20:00N 73°12' W 091°18'0 0.0 340 / 231013.3 3.0 0.2
2017-Aug-14 19:00N 73°12' W 091°18'0 0.0 330 / 151012.8 3.1-0.1
2017-Aug-14 18:00N 73°12' W 091°18'0 0.0 340 / 211012.1 2.5-0.4
2017-Aug-14 17:00N 73°12' W 091°18'0 0.0 340 / 121011.8 2.5-0.4
2017-Aug-14 16:00N 73°12' W 091°18'0 0.0 350 / 131011.1 1.7-0.2
2017-Aug-14 15:00N 73°12' W 091°18'0 0.0 320 / 161009.9 1.9-0.6
2017-Aug-14 14:00N 73°12' W 091°18'0 0.0 320 / 31009.8 3.0 0.2
2017-Aug-14 13:00N 73°12' W 091°18'0 0.0 300 / 81008.6 2.5 0.1
2017-Aug-14 12:00N 73°12' W 091°18'0 0.0 260 / 121007.7 2.3 0.2
2017-Aug-14 11:00N 73°12' W 091°18'2 1.7 240 / 151006.0 2.2 0.8
2017-Aug-14 10:00N 73°12' W 091°24'0 0.0 280 / 121004.7 3.0 1.9
2017-Aug-14 09:00N 73°12' W 091°24'0 0.0 250 / 101004.4 4.7 4.5
2017-Aug-14 08:00N 73°12' W 091°24'0 0.0 290 / 151003.3 6.8 6.6
2017-Aug-14 07:00N 73°12' W 091°24'0 0.0 290 / 61003.0 9.1 8.9
2017-Aug-14 06:00N 73°12' W 091°24'0 0.0 300 / 41002.4 6.9 6.9
2017-Aug-14 05:00N 73°12' W 091°24'0 0.0 330 / 31002.1 6.4 6.4
2017-Aug-14 04:00N 73°12' W 091°24'0 0.0 080 / 61001.8 5.5 5.4
2017-Aug-14 03:00N 73°12' W 091°24'0 0.0 070 / 11001.6 6.5 6.4
2017-Aug-14 02:00N 73°12' W 091°24'0 0.0 230 / 51002.5 7.9 7.9
2017-Aug-14 01:00N 73°12' W 091°24'0 0.0 210 / 51002.4 5.0 4.9
2017-Aug-14 00:00N 73°12' W 091°24'0 0.0 030 / 51002.4 5.3 5.2
2017-Aug-13 23:00N 73°12' W 091°24'0 0.0 360 / 51003.3 4.4 4.3
2017-Aug-13 22:00N 73°12' W 091°24'0 0.0 120 / 131004.1 4.5 4.5
2017-Aug-13 21:00N 73°12' W 091°24'0 0.0 170 / 141005.4 4.5 4.5
2017-Aug-13 20:00N 73°12' W 091°24'0 0.0 170 / 151005.8 5.3 5.2
2017-Aug-13 19:00N 73°12' W 091°24'0 0.0 170 / 181006.0 5.5 5.4
2017-Aug-13 18:00N 73°12' W 091°24'0 0.0 160 / 91006.7 6.0 5.9
2017-Aug-13 17:00N 73°12' W 091°24'0 0.0 140 / 71007.0 6.0 5.9
2017-Aug-13 16:00N 73°12' W 091°24'0 0.0 150 / 101007.3 5.9 5.8
2017-Aug-13 15:00N 73°12' W 091°24'0 0.0 140 / 91007.5 4.6 4.5
2017-Aug-13 14:00N 73°12' W 091°24'2 1.7 170 / 51008.2 4.3 4.2
2017-Aug-13 13:00N 73°12' W 091°18'6 6.0 160 / 51008.7 2.9 2.8
2017-Aug-13 12:00N 73°06' W 091°18'1212.1 200 / 71009.2 3.4 3.2
2017-Aug-13 11:00N 72°54' W 091°24'7 7.0 220 / 81009.5 4.7 4.5
2017-Aug-13 10:00N 72°48' W 091°36'2010.1 250 / 71009.6 4.2 4.1
2017-Aug-13 08:00N 72°30' W 092°06'7 7.0 040 / 21009.8 3.4 3.3
2017-Aug-13 07:00N 72°24' W 092°18'8 8.1 350 / 61009.8 3.3 3.2
2017-Aug-13 06:00N 72°18' W 092°36'1312.5 250 / 41009.9 3.2 3.1
2017-Aug-13 05:00N 72°06' W 092°48'10 9.5 180 / 51010.0 4.8 4.7
2017-Aug-13 04:00N 72°00' W 093°12'8 8.2 200 / 41009.7 5.4 5.3
2017-Aug-13 03:00N 71°54' W 093°30'7 7.5 330 / 91010.4 4.4 4.3
2017-Aug-13 02:00N 71°54' W 093°54'1414.3 350 / 201010.4 3.2 3.1
2017-Aug-13 01:00N 72°00' W 094°36'1414.3 360 / 181010.3 4.8 4.7
2017-Aug-13 00:00N 71°54' W 095°18'7 7.5 020 / 241008.9 7.3 7.2
2017-Aug-12 23:00N 71°54' W 095°42'0 0.0 090 / 61009.6 11.210.8
2017-Aug-12 22:00N 71°54' W 095°42'   120 / 41009.7 12.611.1

Dump ship's entire track history